createdAt,value
2019-01-20T00:00:50.416Z,18.72
2019-01-20T00:03:18.552Z,18.72
2019-01-20T00:05:46.707Z,18.70
2019-01-20T00:08:15.000Z,18.74
2019-01-20T00:10:43.254Z,18.77
2019-01-20T00:13:11.408Z,18.79
2019-01-20T00:15:39.832Z,18.77
2019-01-20T00:18:07.993Z,18.71
2019-01-20T00:20:36.203Z,18.70
2019-01-20T00:23:04.409Z,18.70
2019-01-20T00:25:32.585Z,18.74
2019-01-20T00:28:00.752Z,18.73
2019-01-20T00:30:28.963Z,18.68
2019-01-20T00:32:57.116Z,18.66
2019-01-20T00:35:25.482Z,18.71
2019-01-20T00:37:53.682Z,18.70
2019-01-20T00:40:21.856Z,18.70
2019-01-20T00:42:50.036Z,18.71
2019-01-20T00:45:18.223Z,18.70
2019-01-20T00:47:46.384Z,18.69
2019-01-20T00:50:14.941Z,18.43
2019-01-20T00:52:43.113Z,18.67
2019-01-20T00:55:12.359Z,18.65
2019-01-20T00:57:40.930Z,18.62
2019-01-20T01:00:17.783Z,18.59
2019-01-20T01:02:46.092Z,18.62
2019-01-20T01:05:14.399Z,18.62
2019-01-20T01:07:42.645Z,18.61
2019-01-20T01:10:10.869Z,18.63
2019-01-20T01:12:39.534Z,18.53
2019-01-20T01:15:08.252Z,18.50
2019-01-20T01:17:36.442Z,18.55
2019-01-20T01:20:05.348Z,18.53
2019-01-20T01:22:33.587Z,18.62
2019-01-20T01:25:01.862Z,18.57
2019-01-20T01:27:30.033Z,18.55
2019-01-20T01:29:58.204Z,18.56
2019-01-20T01:32:26.384Z,18.58
2019-01-20T01:34:54.616Z,18.51
2019-01-20T01:37:22.828Z,18.61
2019-01-20T01:39:51.053Z,18.53
2019-01-20T01:42:19.175Z,18.55
2019-01-20T01:44:47.338Z,18.51
2019-01-20T01:47:15.577Z,18.50
2019-01-20T01:49:43.772Z,18.49
2019-01-20T01:52:12.011Z,18.49
2019-01-20T01:54:40.213Z,18.51
2019-01-20T01:57:08.382Z,18.47
2019-01-20T01:59:36.664Z,18.46
2019-01-20T02:02:04.860Z,18.47
2019-01-20T02:04:33.055Z,18.38
2019-01-20T02:07:01.281Z,18.44
2019-01-20T02:09:29.447Z,18.45
2019-01-20T02:11:57.634Z,18.40
2019-01-20T02:14:25.782Z,18.41
2019-01-20T02:16:53.954Z,18.37
2019-01-20T02:19:22.133Z,18.38
2019-01-20T02:21:50.348Z,18.38
2019-01-20T02:24:18.574Z,18.35
2019-01-20T02:26:46.785Z,17.85
2019-01-20T02:29:14.983Z,18.45
2019-01-20T02:31:43.136Z,18.39
2019-01-20T02:34:11.395Z,18.42
2019-01-20T02:36:39.578Z,18.38
2019-01-20T02:39:07.795Z,18.35
2019-01-20T02:41:35.960Z,18.41
2019-01-20T02:44:04.143Z,18.45
2019-01-20T02:46:32.340Z,18.40
2019-01-20T02:49:00.526Z,18.35
2019-01-20T02:51:28.725Z,18.35
2019-01-20T02:53:56.947Z,18.40
2019-01-20T02:56:26.202Z,18.39
2019-01-20T02:58:54.426Z,18.42
2019-01-20T03:01:22.632Z,18.41
2019-01-20T03:03:50.820Z,18.39
2019-01-20T03:06:19.017Z,18.39
2019-01-20T03:08:47.144Z,18.36
2019-01-20T03:11:15.326Z,18.34
2019-01-20T03:13:43.538Z,18.32
2019-01-20T03:16:11.687Z,18.33
2019-01-20T03:18:40.041Z,18.32
2019-01-20T03:21:08.220Z,18.26
2019-01-20T03:23:36.403Z,18.35
2019-01-20T03:26:04.662Z,18.39
2019-01-20T03:28:32.832Z,18.36
2019-01-20T03:31:01.005Z,18.32
2019-01-20T03:33:29.206Z,18.32
2019-01-20T03:35:57.453Z,18.28
2019-01-20T03:38:25.635Z,18.27
2019-01-20T03:40:53.801Z,18.32
2019-01-20T03:43:21.947Z,18.32
2019-01-20T03:45:50.129Z,18.32
2019-01-20T03:48:18.306Z,18.33
2019-01-20T03:50:46.478Z,18.30
2019-01-20T03:53:14.631Z,18.27
2019-01-20T03:55:42.795Z,18.24
2019-01-20T03:58:11.080Z,18.30
2019-01-20T04:00:39.269Z,18.26
2019-01-20T04:03:07.898Z,17.75
2019-01-20T04:05:36.077Z,18.23
2019-01-20T04:08:04.274Z,18.26
2019-01-20T04:10:32.475Z,18.27
2019-01-20T04:13:00.682Z,18.27
2019-01-20T04:15:28.986Z,18.25
2019-01-20T04:17:57.222Z,18.26
2019-01-20T04:20:25.400Z,18.24
2019-01-20T04:22:53.594Z,18.23
2019-01-20T04:25:21.867Z,18.21
2019-01-20T04:27:50.074Z,18.19
2019-01-20T04:30:18.971Z,18.27
2019-01-20T04:32:47.235Z,18.22
2019-01-20T04:35:15.482Z,18.15
2019-01-20T04:37:43.775Z,18.16
2019-01-20T04:40:13.330Z,18.21
2019-01-20T04:42:41.585Z,18.19
2019-01-20T04:45:10.479Z,18.18
2019-01-20T04:47:38.715Z,18.22
2019-01-20T04:50:08.310Z,18.14
2019-01-20T04:52:36.534Z,18.14
2019-01-20T04:55:05.158Z,18.16
2019-01-20T05:00:10.775Z,18.14
2019-01-20T05:02:38.930Z,18.16
2019-01-20T05:05:07.169Z,18.16
2019-01-20T05:07:35.347Z,18.16
2019-01-20T05:10:03.605Z,18.12
2019-01-20T05:12:37.569Z,18.14
2019-01-20T05:15:01.822Z,18.17
2019-01-20T05:17:30.028Z,18.13
2019-01-20T05:19:58.183Z,18.12
2019-01-20T05:22:26.528Z,18.14
2019-01-20T05:24:54.729Z,18.14
2019-01-20T05:27:22.963Z,18.12
2019-01-20T05:29:51.199Z,18.14
2019-01-20T05:32:19.529Z,18.11
2019-01-20T05:34:47.785Z,18.11
2019-01-20T05:37:16.073Z,18.13
2019-01-20T05:39:44.356Z,18.07
2019-01-20T05:42:12.543Z,18.06
2019-01-20T05:44:40.859Z,18.08
2019-01-20T05:47:28.267Z,18.04
2019-01-20T05:49:56.467Z,18.09
2019-01-20T05:52:24.691Z,18.08
2019-01-20T05:54:52.939Z,18.10
2019-01-20T05:57:21.183Z,18.13
2019-01-20T05:59:49.357Z,18.13
2019-01-20T06:02:36.538Z,17.98
2019-01-20T06:07:39.049Z,18.04
2019-01-20T06:10:07.921Z,18.00
2019-01-20T06:12:55.205Z,18.03
2019-01-20T06:15:23.791Z,18.09
2019-01-20T06:17:51.977Z,18.03
2019-01-20T06:20:20.139Z,18.06
2019-01-20T06:22:48.361Z,17.93
2019-01-20T06:25:16.577Z,17.93
2019-01-20T06:27:44.800Z,17.96
2019-01-20T06:30:32.084Z,17.97
2019-01-20T06:33:00.340Z,17.94
2019-01-20T06:35:28.547Z,17.95
2019-01-20T06:37:56.780Z,17.93
2019-01-20T06:40:25.000Z,17.96
2019-01-20T06:42:53.285Z,17.97
2019-01-20T06:45:21.536Z,17.99
2019-01-20T06:47:49.752Z,17.98
2019-01-20T06:50:17.974Z,17.91
2019-01-20T06:52:46.225Z,17.96
2019-01-20T06:55:14.441Z,17.92
2019-01-20T06:57:42.616Z,17.95
2019-01-20T07:00:12.318Z,17.91
2019-01-20T07:02:40.509Z,17.97
2019-01-20T07:05:08.798Z,17.89
2019-01-20T07:07:36.993Z,17.89
2019-01-20T07:10:05.582Z,17.90
2019-01-20T07:15:21.991Z,17.89
2019-01-20T07:17:50.226Z,17.88
2019-01-20T07:20:18.399Z,17.88
2019-01-20T07:25:20.103Z,17.89
2019-01-20T07:27:48.389Z,17.85
2019-01-20T07:30:35.697Z,17.95
2019-01-20T07:35:39.342Z,17.90
2019-01-20T07:38:07.640Z,17.88
2019-01-20T07:40:35.796Z,17.87
2019-01-20T07:43:03.940Z,17.86
2019-01-20T07:45:51.186Z,17.91
2019-01-20T07:48:38.243Z,17.84
2019-01-20T07:51:06.412Z,17.84
2019-01-20T07:53:34.560Z,17.84
2019-01-20T07:56:21.805Z,18.02
2019-01-20T07:58:50.022Z,18.08
2019-01-20T08:01:18.175Z,18.01
2019-01-20T08:03:46.318Z,17.96
2019-01-20T08:06:14.468Z,17.97
2019-01-20T08:08:42.617Z,17.94
2019-01-20T08:11:29.857Z,17.89
2019-01-20T08:13:58.013Z,17.90
2019-01-20T08:16:26.148Z,17.90
2019-01-20T08:18:54.294Z,17.82
2019-01-20T08:21:22.432Z,17.85
2019-01-20T08:23:50.600Z,17.81
2019-01-20T08:26:18.737Z,17.86
2019-01-20T08:28:46.866Z,17.88
2019-01-20T08:31:15.058Z,17.88
2019-01-20T08:33:43.194Z,17.85
2019-01-20T08:36:30.425Z,17.87
2019-01-20T08:38:58.576Z,17.86
2019-01-20T08:41:26.733Z,17.92
2019-01-20T08:43:54.860Z,17.90
2019-01-20T08:46:25.226Z,17.96
2019-01-20T08:48:53.355Z,17.92
2019-01-20T08:54:08.811Z,17.88
2019-01-20T08:56:55.957Z,17.95
2019-01-20T09:01:57.410Z,17.83
2019-01-20T09:04:44.473Z,17.88
2019-01-20T09:07:12.607Z,17.85
2019-01-20T09:09:40.749Z,17.86
2019-01-20T09:12:08.884Z,17.84
2019-01-20T09:14:37.029Z,17.88
2019-01-20T09:17:05.204Z,17.84
2019-01-20T09:19:33.344Z,17.84
2019-01-20T09:22:02.451Z,17.88
2019-01-20T09:24:30.641Z,17.88
2019-01-20T09:26:58.783Z,17.91
2019-01-20T09:29:26.940Z,17.94
2019-01-20T09:31:55.075Z,17.95
2019-01-20T09:34:42.307Z,18.00
2019-01-20T09:39:57.591Z,18.01
2019-01-20T09:42:25.746Z,18.02
2019-01-20T09:44:53.873Z,18.07
2019-01-20T09:47:22.017Z,18.06
2019-01-20T09:49:50.177Z,18.04
2019-01-20T09:52:37.222Z,18.13
2019-01-20T09:55:05.676Z,18.16
2019-01-20T09:57:33.811Z,18.19
2019-01-20T10:00:01.942Z,18.21
2019-01-20T10:02:30.233Z,18.22
2019-01-20T10:07:45.514Z,18.29
2019-01-20T10:10:14.231Z,18.32
2019-01-20T10:12:42.389Z,18.30
2019-01-20T10:15:10.979Z,18.37
2019-01-20T10:17:39.114Z,18.42
2019-01-20T10:20:09.917Z,18.37
2019-01-20T10:25:25.215Z,18.43
2019-01-20T10:27:53.367Z,18.51
2019-01-20T10:30:22.877Z,18.52
2019-01-20T10:32:51.027Z,18.54
2019-01-20T10:38:09.101Z,18.59
2019-01-20T10:40:37.262Z,18.62
2019-01-20T10:43:05.431Z,18.62
2019-01-20T10:45:33.607Z,18.68
2019-01-20T10:48:20.709Z,18.72
2019-01-20T10:50:48.876Z,18.77
2019-01-20T10:53:17.150Z,18.81
2019-01-20T10:55:45.312Z,18.81
2019-01-20T10:58:13.494Z,18.82
2019-01-20T11:00:41.915Z,18.87
2019-01-20T11:03:10.070Z,18.93
2019-01-20T11:05:38.243Z,18.93
2019-01-20T11:08:06.494Z,19.00
2019-01-20T11:10:34.641Z,19.00
2019-01-20T11:13:02.777Z,19.06
2019-01-20T11:15:30.911Z,19.07
2019-01-20T11:17:59.089Z,19.04
2019-01-20T11:20:27.240Z,19.19
2019-01-20T11:23:14.310Z,19.17
2019-01-20T11:26:01.529Z,19.22
2019-01-20T11:28:48.757Z,19.30
2019-01-20T11:31:16.920Z,19.29
2019-01-20T11:33:45.053Z,19.32
2019-01-20T11:36:13.230Z,19.42
2019-01-20T11:38:41.413Z,19.47
2019-01-20T11:41:28.529Z,19.50
2019-01-20T11:43:56.625Z,19.49
2019-01-20T11:46:24.807Z,19.59
2019-01-20T11:49:12.017Z,19.58
2019-01-20T11:51:40.216Z,19.64
2019-01-20T11:54:27.428Z,19.72
2019-01-20T11:56:55.617Z,19.73
2019-01-20T11:59:23.764Z,19.84
2019-01-20T12:01:51.918Z,19.90
2019-01-20T12:04:20.090Z,19.97
2019-01-20T12:06:48.391Z,19.94
2019-01-20T12:09:16.565Z,19.94
2019-01-20T12:14:23.954Z,20.09
2019-01-20T12:16:48.209Z,20.15
2019-01-20T12:19:16.493Z,20.41
2019-01-20T12:22:03.572Z,20.48
2019-01-20T12:24:31.745Z,20.38
2019-01-20T12:26:59.875Z,20.25
2019-01-20T12:29:28.027Z,20.38
2019-01-20T12:31:56.174Z,20.52
2019-01-20T12:34:43.244Z,20.50
2019-01-20T12:37:11.410Z,20.54
2019-01-20T12:39:39.586Z,20.57
2019-01-20T12:42:07.797Z,20.65
2019-01-20T12:44:36.068Z,20.59
2019-01-20T12:47:23.325Z,20.58
2019-01-20T12:49:51.492Z,20.76
2019-01-20T12:52:19.684Z,20.79
2019-01-20T12:54:47.944Z,20.72
2019-01-20T12:57:16.117Z,20.80
2019-01-20T12:59:44.259Z,20.79
2019-01-20T13:02:12.457Z,20.82
2019-01-20T13:04:40.643Z,20.96
2019-01-20T13:07:08.806Z,21.00
2019-01-20T13:09:36.944Z,21.03
2019-01-20T13:12:05.118Z,21.15
2019-01-20T13:14:38.981Z,21.11
2019-01-20T13:17:03.155Z,21.01
2019-01-20T13:19:31.281Z,21.15
2019-01-20T13:21:59.487Z,21.28
2019-01-20T13:27:01.213Z,21.11
2019-01-20T13:29:29.363Z,21.31
2019-01-20T13:31:57.541Z,21.33
2019-01-20T13:34:25.689Z,21.25
2019-01-20T13:36:53.875Z,21.23
2019-01-20T13:39:22.042Z,21.40
2019-01-20T13:41:50.241Z,21.49
2019-01-20T13:44:18.370Z,21.45
2019-01-20T13:46:46.509Z,21.50
2019-01-20T13:51:48.729Z,21.53
2019-01-20T13:54:16.915Z,21.38
2019-01-20T13:56:45.097Z,21.43
2019-01-20T13:59:13.257Z,21.53
2019-01-20T14:01:41.435Z,21.52
2019-01-20T14:04:09.621Z,21.48
2019-01-20T14:09:24.937Z,21.71
2019-01-20T14:11:53.081Z,21.58
2019-01-20T14:14:21.221Z,21.75
2019-01-20T14:16:49.422Z,22.08
2019-01-20T14:19:21.730Z,22.05
2019-01-20T14:22:06.256Z,21.80
2019-01-20T14:24:34.429Z,21.69
2019-01-20T14:27:02.601Z,21.61
2019-01-20T14:29:30.760Z,21.71
2019-01-20T14:31:58.876Z,21.77
2019-01-20T14:34:27.053Z,21.72
2019-01-20T14:36:55.256Z,21.76
2019-01-20T14:39:42.498Z,21.73
2019-01-20T14:42:10.635Z,21.86
2019-01-20T14:44:38.780Z,21.86
2019-01-20T14:47:06.959Z,21.82
2019-01-20T14:49:35.286Z,21.78
2019-01-20T14:52:03.481Z,21.81
2019-01-20T14:54:31.629Z,21.84
2019-01-20T14:56:59.863Z,21.89
2019-01-20T14:59:28.066Z,21.97
2019-01-20T15:04:43.369Z,22.00
2019-01-20T15:07:11.556Z,22.04
2019-01-20T15:09:39.709Z,22.07
2019-01-20T15:12:07.897Z,22.08
2019-01-20T15:14:36.102Z,22.14
2019-01-20T15:17:04.243Z,22.11
2019-01-20T15:19:32.465Z,22.11
2019-01-20T15:22:00.599Z,22.20
2019-01-20T15:24:31.400Z,22.20
2019-01-20T15:26:58.588Z,22.15
2019-01-20T15:29:26.784Z,22.17
2019-01-20T15:31:54.945Z,22.29
2019-01-20T15:34:23.170Z,22.24
2019-01-20T15:36:51.432Z,22.28
2019-01-20T15:39:19.586Z,22.35
2019-01-20T15:41:47.778Z,22.35
2019-01-20T15:44:15.916Z,22.42
2019-01-20T15:46:44.173Z,22.29
2019-01-20T15:49:12.400Z,22.41
2019-01-20T15:51:40.553Z,22.36
2019-01-20T15:54:08.756Z,22.35
2019-01-20T15:56:36.938Z,22.52
2019-01-20T15:59:05.112Z,22.52
2019-01-20T16:01:33.269Z,22.36
2019-01-20T16:04:01.478Z,22.37
2019-01-20T16:06:29.665Z,22.38
2019-01-20T16:08:57.824Z,22.44
2019-01-20T16:11:26.109Z,22.59
2019-01-20T16:13:54.257Z,22.57
2019-01-20T16:16:22.515Z,22.48
2019-01-20T16:18:50.717Z,22.62
2019-01-20T16:21:38.022Z,22.52
2019-01-20T16:24:25.127Z,22.61
2019-01-20T16:26:53.290Z,22.64
2019-01-20T16:29:21.489Z,22.60
2019-01-20T16:31:49.684Z,22.63
2019-01-20T16:34:19.162Z,22.59
2019-01-20T16:36:47.729Z,22.64
2019-01-20T16:39:15.930Z,22.69
2019-01-20T16:44:23.575Z,22.73
2019-01-20T16:46:51.729Z,22.77
2019-01-20T16:49:38.980Z,22.73
2019-01-20T16:52:26.241Z,22.78
2019-01-20T16:54:54.449Z,22.80
2019-01-20T16:57:22.637Z,22.78
2019-01-20T17:00:09.818Z,22.85
2019-01-20T17:02:37.992Z,22.88
2019-01-20T17:05:07.442Z,22.87
2019-01-20T17:07:35.624Z,22.91
2019-01-20T17:10:03.959Z,22.85
2019-01-20T17:15:39.814Z,22.98
2019-01-20T17:18:08.945Z,22.96
2019-01-20T17:20:37.125Z,22.95
2019-01-20T17:23:05.391Z,22.94
2019-01-20T17:25:33.550Z,22.98
2019-01-20T17:28:07.979Z,22.98
2019-01-20T17:30:36.189Z,23.07
2019-01-20T17:33:04.551Z,23.13
2019-01-20T17:35:32.770Z,23.13
2019-01-20T17:38:00.945Z,22.94
2019-01-20T17:40:29.236Z,22.99
2019-01-20T17:42:57.383Z,23.04
2019-01-20T17:45:48.517Z,23.02
2019-01-20T17:48:15.676Z,23.19
2019-01-20T17:50:44.385Z,23.13
2019-01-20T17:53:12.760Z,23.25
2019-01-20T17:55:40.909Z,23.25
2019-01-20T17:58:09.054Z,23.27
2019-01-20T18:00:56.391Z,23.25
2019-01-20T18:03:24.527Z,22.87
2019-01-20T18:05:52.697Z,23.34
2019-01-20T18:08:39.926Z,23.30
2019-01-20T18:11:08.100Z,23.25
2019-01-20T18:13:55.313Z,23.29
2019-01-20T18:16:23.487Z,23.23
2019-01-20T18:18:51.629Z,23.31
2019-01-20T18:21:19.756Z,23.34
2019-01-20T18:23:47.945Z,23.34
2019-01-20T18:26:35.169Z,23.43
2019-01-20T18:29:03.314Z,23.33
2019-01-20T18:31:31.480Z,23.42
2019-01-20T18:33:59.618Z,23.45
2019-01-20T18:36:46.873Z,23.45
2019-01-20T18:39:15.024Z,23.44
2019-01-20T18:41:43.148Z,23.41
2019-01-20T18:44:11.350Z,23.46
2019-01-20T18:46:39.505Z,23.45
2019-01-20T18:49:26.568Z,23.38
2019-01-20T18:54:21.660Z,23.47
2019-01-20T18:57:08.766Z,23.37
2019-01-20T18:59:56.034Z,23.47
2019-01-20T19:02:24.174Z,23.40
2019-01-20T19:04:52.356Z,23.40
2019-01-20T19:07:20.502Z,23.47
2019-01-20T19:09:48.645Z,23.49
2019-01-20T19:12:35.894Z,23.52
2019-01-20T19:18:18.714Z,23.65
2019-01-20T19:21:00.578Z,23.61
2019-01-20T19:23:28.752Z,23.60
2019-01-20T19:25:56.908Z,23.63
2019-01-20T19:28:25.035Z,23.65
2019-01-20T19:30:53.189Z,23.73
2019-01-20T19:33:21.341Z,23.64
2019-01-20T19:35:49.505Z,23.67
2019-01-20T19:38:17.649Z,23.71
2019-01-20T19:40:45.782Z,23.69
2019-01-20T19:43:33.065Z,23.74
2019-01-20T19:46:01.275Z,23.76
2019-01-20T19:48:29.521Z,23.73
2019-01-20T19:50:57.729Z,23.73
2019-01-20T19:53:25.925Z,23.79
2019-01-20T19:55:54.056Z,23.79
2019-01-20T19:58:22.371Z,23.73
2019-01-20T20:00:50.511Z,23.75
2019-01-20T20:03:18.691Z,23.79
2019-01-20T20:05:46.847Z,23.69
2019-01-20T20:08:15.097Z,23.66
2019-01-20T20:10:43.485Z,23.69
2019-01-20T20:13:11.761Z,23.76
2019-01-20T20:15:39.944Z,23.95
2019-01-20T20:18:08.163Z,23.74
2019-01-20T20:20:36.314Z,23.83
2019-01-20T20:23:04.514Z,23.90
2019-01-20T20:25:32.834Z,23.73
2019-01-20T20:28:01.053Z,23.63
2019-01-20T20:30:30.576Z,23.71
2019-01-20T20:32:58.723Z,23.78
2019-01-20T20:35:26.938Z,23.83
2019-01-20T20:37:55.190Z,23.91
2019-01-20T20:40:23.377Z,23.93
2019-01-20T20:42:51.646Z,23.90
2019-01-20T20:45:20.380Z,23.89
2019-01-20T20:48:07.602Z,23.88
2019-01-20T20:50:35.887Z,23.90
2019-01-20T20:53:04.125Z,23.93
2019-01-20T20:55:32.370Z,23.91
2019-01-20T20:58:00.532Z,23.92
2019-01-20T21:00:47.834Z,23.96
2019-01-20T21:03:19.075Z,23.87
2019-01-20T21:05:47.413Z,24.04
2019-01-20T21:08:15.636Z,23.97
2019-01-20T21:10:43.799Z,24.03
2019-01-20T21:13:12.054Z,23.99
2019-01-20T21:15:40.559Z,23.99
2019-01-20T21:18:08.716Z,24.08
2019-01-20T21:20:36.840Z,24.05
2019-01-20T21:23:11.770Z,24.10
2019-01-20T21:25:35.040Z,24.05
2019-01-20T21:28:22.105Z,24.04
2019-01-20T21:30:50.281Z,24.13
2019-01-20T21:33:18.503Z,24.06
2019-01-20T21:35:47.760Z,24.01
2019-01-20T21:38:35.633Z,23.99
2019-01-20T21:41:03.792Z,24.00
2019-01-20T21:43:31.988Z,24.03
2019-01-20T21:46:19.103Z,24.01
2019-01-20T21:48:47.353Z,24.04
2019-01-20T21:51:15.577Z,24.04
2019-01-20T21:53:43.749Z,24.08
2019-01-20T21:56:11.911Z,24.18
2019-01-20T21:58:40.049Z,24.19
2019-01-20T22:01:08.191Z,24.16
2019-01-20T22:06:10.193Z,24.18
2019-01-20T22:08:38.365Z,24.05
2019-01-20T22:11:06.512Z,24.18
2019-01-20T22:13:34.651Z,24.12
2019-01-20T22:16:21.901Z,24.24
2019-01-20T22:18:50.048Z,24.20
2019-01-20T22:21:18.242Z,24.27
2019-01-20T22:23:46.389Z,24.24
2019-01-20T22:26:14.534Z,24.32
2019-01-20T22:28:42.703Z,24.28
2019-01-20T22:31:10.847Z,24.26
2019-01-20T22:33:38.990Z,24.35
2019-01-20T22:36:07.131Z,24.27
2019-01-20T22:38:35.306Z,24.22
2019-01-20T22:41:03.458Z,24.39
2019-01-20T22:43:31.604Z,24.45
2019-01-20T22:51:56.262Z,24.41
2019-01-20T22:54:43.534Z,24.52
2019-01-20T22:57:11.715Z,24.47
2019-01-20T22:59:39.864Z,24.49
2019-01-20T23:02:08.030Z,24.51
2019-01-20T23:04:36.218Z,24.60
2019-01-20T23:07:04.444Z,24.56
2019-01-20T23:09:32.572Z,24.61
2019-01-20T23:12:00.710Z,24.54
2019-01-20T23:14:28.847Z,24.62
2019-01-20T23:16:56.976Z,24.67
2019-01-20T23:19:25.149Z,24.55
2019-01-20T23:21:53.280Z,24.66
2019-01-20T23:24:21.450Z,24.68
2019-01-20T23:26:49.584Z,24.43
2019-01-20T23:29:17.753Z,24.72
2019-01-20T23:31:45.899Z,24.75
2019-01-20T23:34:14.030Z,24.83
2019-01-20T23:36:42.205Z,24.77
2019-01-20T23:39:10.342Z,24.77
2019-01-20T23:41:38.499Z,24.64
2019-01-20T23:44:06.639Z,24.79
2019-01-20T23:46:34.781Z,24.82
2019-01-20T23:49:02.989Z,24.85
2019-01-20T23:51:31.138Z,24.80
2019-01-20T23:54:18.240Z,24.85
2019-01-20T23:56:46.462Z,24.88
2019-01-20T23:59:14.604Z,24.91
